sensor_id;sensor_type;location;lat;lon;timestamp;P1;durP1;ratioP1;P2;durP2;ratioP2
10132;SDS011;5106;50.926;7.080;2023-06-22T00:01:47;6.15;;;5.07;;
10132;SDS011;5106;50.926;7.080;2023-06-22T00:04:13;5.70;;;5.18;;
10132;SDS011;5106;50.926;7.080;2023-06-22T00:06:39;5.72;;;5.22;;
10132;SDS011;5106;50.926;7.080;2023-06-22T00:09:04;6.47;;;5.38;;
10132;SDS011;5106;50.926;7.080;2023-06-22T00:11:31;6.82;;;5.40;;
10132;SDS011;5106;50.926;7.080;2023-06-22T00:13:58;5.85;;;5.25;;
10132;SDS011;5106;50.926;7.080;2023-06-22T00:16:27;5.45;;;4.95;;
10132;SDS011;5106;50.926;7.080;2023-06-22T00:18:52;6.88;;;5.28;;
10132;SDS011;5106;50.926;7.080;2023-06-22T00:21:18;6.20;;;5.63;;
10132;SDS011;5106;50.926;7.080;2023-06-22T00:23:45;5.70;;;5.20;;
10132;SDS011;5106;50.926;7.080;2023-06-22T00:26:12;5.35;;;4.95;;
10132;SDS011;5106;50.926;7.080;2023-06-22T00:28:38;5.40;;;5.00;;
10132;SDS011;5106;50.926;7.080;2023-06-22T00:31:04;5.35;;;4.85;;
10132;SDS011;5106;50.926;7.080;2023-06-22T00:33:30;5.15;;;4.75;;
10132;SDS011;5106;50.926;7.080;2023-06-22T00:35:56;6.47;;;5.30;;
10132;SDS011;5106;50.926;7.080;2023-06-22T00:38:22;5.20;;;4.72;;
10132;SDS011;5106;50.926;7.080;2023-06-22T00:40:47;6.00;;;5.32;;
10132;SDS011;5106;50.926;7.080;2023-06-22T00:43:13;8.48;;;5.35;;
10132;SDS011;5106;50.926;7.080;2023-06-22T00:45:38;5.95;;;5.35;;
10132;SDS011;5106;50.926;7.080;2023-06-22T00:48:04;5.78;;;5.28;;
10132;SDS011;5106;50.926;7.080;2023-06-22T00:50:31;7.47;;;5.20;;
10132;SDS011;5106;50.926;7.080;2023-06-22T00:52:59;5.45;;;4.95;;
10132;SDS011;5106;50.926;7.080;2023-06-22T00:55:33;5.65;;;5.05;;
10132;SDS011;5106;50.926;7.080;2023-06-22T00:58:07;7.90;;;5.40;;
10132;SDS011;5106;50.926;7.080;2023-06-22T01:00:36;7.55;;;4.88;;
10132;SDS011;5106;50.926;7.080;2023-06-22T01:03:06;5.88;;;5.05;;
10132;SDS011;5106;50.926;7.080;2023-06-22T01:05:35;6.43;;;5.15;;
10132;SDS011;5106;50.926;7.080;2023-06-22T01:13:02;5.35;;;4.85;;
10132;SDS011;5106;50.926;7.080;2023-06-22T01:18:14;7.57;;;5.53;;
10132;SDS011;5106;50.926;7.080;2023-06-22T01:20:42;5.75;;;5.22;;
10132;SDS011;5106;50.926;7.080;2023-06-22T01:23:17;7.65;;;5.40;;
10132;SDS011;5106;50.926;7.080;2023-06-22T01:26:16;5.78;;;5.18;;
10132;SDS011;5106;50.926;7.080;2023-06-22T01:28:45;5.55;;;5.05;;
10132;SDS011;5106;50.926;7.080;2023-06-22T01:31:23;6.68;;;5.30;;
10132;SDS011;5106;50.926;7.080;2023-06-22T01:33:53;6.43;;;5.82;;
10132;SDS011;5106;50.926;7.080;2023-06-22T01:36:21;5.72;;;5.00;;
10132;SDS011;5106;50.926;7.080;2023-06-22T01:38:48;6.00;;;5.38;;
10132;SDS011;5106;50.926;7.080;2023-06-22T01:41:14;5.35;;;4.95;;
10132;SDS011;5106;50.926;7.080;2023-06-22T01:43:42;5.82;;;5.22;;
10132;SDS011;5106;50.926;7.080;2023-06-22T01:46:10;6.10;;;5.50;;
10132;SDS011;5106;50.926;7.080;2023-06-22T01:48:37;6.07;;;5.45;;
10132;SDS011;5106;50.926;7.080;2023-06-22T01:51:04;7.03;;;5.47;;
10132;SDS011;5106;50.926;7.080;2023-06-22T01:53:29;6.35;;;5.30;;
10132;SDS011;5106;50.926;7.080;2023-06-22T01:55:55;5.95;;;5.35;;
10132;SDS011;5106;50.926;7.080;2023-06-22T01:58:23;5.75;;;5.25;;
10132;SDS011;5106;50.926;7.080;2023-06-22T02:00:53;5.82;;;5.30;;
10132;SDS011;5106;50.926;7.080;2023-06-22T02:03:26;6.00;;;5.40;;
10132;SDS011;5106;50.926;7.080;2023-06-22T02:06:01;5.85;;;5.35;;
10132;SDS011;5106;50.926;7.080;2023-06-22T02:08:31;5.65;;;5.15;;
10132;SDS011;5106;50.926;7.080;2023-06-22T02:11:01;5.60;;;5.10;;
10132;SDS011;5106;50.926;7.080;2023-06-22T02:13:28;5.35;;;4.85;;
10132;SDS011;5106;50.926;7.080;2023-06-22T02:15:54;5.57;;;5.07;;
10132;SDS011;5106;50.926;7.080;2023-06-22T02:18:21;6.05;;;5.10;;
10132;SDS011;5106;50.926;7.080;2023-06-22T02:20:46;6.10;;;5.50;;
10132;SDS011;5106;50.926;7.080;2023-06-22T02:23:12;5.78;;;5.20;;
10132;SDS011;5106;50.926;7.080;2023-06-22T02:25:37;6.70;;;5.25;;
10132;SDS011;5106;50.926;7.080;2023-06-22T02:28:04;8.18;;;5.47;;
10132;SDS011;5106;50.926;7.080;2023-06-22T02:30:30;5.68;;;5.15;;
10132;SDS011;5106;50.926;7.080;2023-06-22T02:32:55;6.20;;;5.22;;
10132;SDS011;5106;50.926;7.080;2023-06-22T02:35:27;5.75;;;5.25;;
10132;SDS011;5106;50.926;7.080;2023-06-22T02:37:57;6.00;;;5.40;;
10132;SDS011;5106;50.926;7.080;2023-06-22T02:40:24;5.97;;;5.22;;
10132;SDS011;5106;50.926;7.080;2023-06-22T02:42:50;5.88;;;5.20;;
10132;SDS011;5106;50.926;7.080;2023-06-22T02:45:15;5.68;;;4.63;;
10132;SDS011;5106;50.926;7.080;2023-06-22T02:47:41;5.35;;;4.70;;
10132;SDS011;5106;50.926;7.080;2023-06-22T02:50:07;5.78;;;5.28;;
10132;SDS011;5106;50.926;7.080;2023-06-22T02:52:32;5.88;;;5.15;;
10132;SDS011;5106;50.926;7.080;2023-06-22T02:54:58;6.15;;;5.47;;
10132;SDS011;5106;50.926;7.080;2023-06-22T02:57:24;5.28;;;4.80;;
10132;SDS011;5106;50.926;7.080;2023-06-22T02:59:50;5.75;;;5.25;;
10132;SDS011;5106;50.926;7.080;2023-06-22T03:02:16;5.70;;;5.20;;
10132;SDS011;5106;50.926;7.080;2023-06-22T03:04:41;5.70;;;5.20;;
10132;SDS011;5106;50.926;7.080;2023-06-22T03:07:08;5.47;;;5.05;;
10132;SDS011;5106;50.926;7.080;2023-06-22T03:09:33;6.35;;;5.22;;
10132;SDS011;5106;50.926;7.080;2023-06-22T03:11:59;5.38;;;4.97;;
10132;SDS011;5106;50.926;7.080;2023-06-22T03:14:25;5.95;;;5.35;;
10132;SDS011;5106;50.926;7.080;2023-06-22T03:16:51;6.10;;;5.57;;
10132;SDS011;5106;50.926;7.080;2023-06-22T03:19:16;5.40;;;4.90;;
10132;SDS011;5106;50.926;7.080;2023-06-22T03:21:42;8.43;;;5.80;;
10132;SDS011;5106;50.926;7.080;2023-06-22T03:24:07;6.72;;;5.60;;
10132;SDS011;5106;50.926;7.080;2023-06-22T03:26:33;5.88;;;5.38;;
10132;SDS011;5106;50.926;7.080;2023-06-22T03:28:59;5.72;;;5.20;;
10132;SDS011;5106;50.926;7.080;2023-06-22T03:31:25;5.93;;;4.90;;
10132;SDS011;5106;50.926;7.080;2023-06-22T03:33:51;8.35;;;5.57;;
10132;SDS011;5106;50.926;7.080;2023-06-22T03:36:17;5.97;;;5.47;;
10132;SDS011;5106;50.926;7.080;2023-06-22T03:38:47;5.55;;;5.15;;
10132;SDS011;5106;50.926;7.080;2023-06-22T03:41:14;6.28;;;5.68;;
10132;SDS011;5106;50.926;7.080;2023-06-22T03:43:39;6.07;;;5.57;;
10132;SDS011;5106;50.926;7.080;2023-06-22T03:46:05;6.68;;;5.55;;
10132;SDS011;5106;50.926;7.080;2023-06-22T03:48:31;6.00;;;5.38;;
10132;SDS011;5106;50.926;7.080;2023-06-22T03:50:58;10.30;;;5.40;;
10132;SDS011;5106;50.926;7.080;2023-06-22T03:53:24;10.77;;;6.13;;
10132;SDS011;5106;50.926;7.080;2023-06-22T03:55:50;8.68;;;6.05;;
10132;SDS011;5106;50.926;7.080;2023-06-22T03:58:17;7.85;;;6.22;;
10132;SDS011;5106;50.926;7.080;2023-06-22T04:00:44;6.93;;;5.82;;
10132;SDS011;5106;50.926;7.080;2023-06-22T04:03:16;6.45;;;5.82;;
10132;SDS011;5106;50.926;7.080;2023-06-22T04:05:45;6.22;;;5.63;;
10132;SDS011;5106;50.926;7.080;2023-06-22T04:08:15;6.00;;;5.40;;
10132;SDS011;5106;50.926;7.080;2023-06-22T04:10:40;9.35;;;6.43;;
10132;SDS011;5106;50.926;7.080;2023-06-22T04:13:06;6.47;;;5.88;;
10132;SDS011;5106;50.926;7.080;2023-06-22T04:15:32;5.78;;;5.30;;
10132;SDS011;5106;50.926;7.080;2023-06-22T04:17:57;6.32;;;5.75;;
10132;SDS011;5106;50.926;7.080;2023-06-22T04:20:23;6.13;;;5.63;;
10132;SDS011;5106;50.926;7.080;2023-06-22T04:22:52;7.32;;;5.57;;
10132;SDS011;5106;50.926;7.080;2023-06-22T04:25:18;6.30;;;5.80;;
10132;SDS011;5106;50.926;7.080;2023-06-22T04:27:44;6.35;;;5.75;;
10132;SDS011;5106;50.926;7.080;2023-06-22T04:30:11;6.65;;;6.05;;
10132;SDS011;5106;50.926;7.080;2023-06-22T04:32:37;7.28;;;5.80;;
10132;SDS011;5106;50.926;7.080;2023-06-22T04:35:03;6.70;;;6.05;;
10132;SDS011;5106;50.926;7.080;2023-06-22T04:37:30;8.10;;;6.25;;
10132;SDS011;5106;50.926;7.080;2023-06-22T04:39:55;6.85;;;6.00;;
10132;SDS011;5106;50.926;7.080;2023-06-22T04:42:21;8.25;;;5.90;;
10132;SDS011;5106;50.926;7.080;2023-06-22T04:44:47;6.97;;;6.28;;
10132;SDS011;5106;50.926;7.080;2023-06-22T04:47:12;9.30;;;6.70;;
10132;SDS011;5106;50.926;7.080;2023-06-22T04:49:38;6.90;;;6.25;;
10132;SDS011;5106;50.926;7.080;2023-06-22T04:52:06;6.82;;;6.18;;
10132;SDS011;5106;50.926;7.080;2023-06-22T04:54:33;7.20;;;6.57;;
10132;SDS011;5106;50.926;7.080;2023-06-22T04:57:03;7.25;;;6.65;;
10132;SDS011;5106;50.926;7.080;2023-06-22T04:59:36;7.57;;;6.85;;
10132;SDS011;5106;50.926;7.080;2023-06-22T05:02:04;7.38;;;6.55;;
10132;SDS011;5106;50.926;7.080;2023-06-22T05:04:30;7.70;;;6.93;;
10132;SDS011;5106;50.926;7.080;2023-06-22T05:06:56;7.70;;;7.00;;
10132;SDS011;5106;50.926;7.080;2023-06-22T05:09:23;10.43;;;7.05;;
10132;SDS011;5106;50.926;7.080;2023-06-22T05:11:50;8.15;;;7.15;;
10132;SDS011;5106;50.926;7.080;2023-06-22T05:14:16;7.28;;;6.65;;
10132;SDS011;5106;50.926;7.080;2023-06-22T05:16:42;8.00;;;7.28;;
10132;SDS011;5106;50.926;7.080;2023-06-22T05:19:08;7.15;;;6.55;;
10132;SDS011;5106;50.926;7.080;2023-06-22T05:21:34;7.70;;;7.00;;
10132;SDS011;5106;50.926;7.080;2023-06-22T05:24:00;8.07;;;7.28;;
10132;SDS011;5106;50.926;7.080;2023-06-22T05:26:27;9.30;;;7.57;;
10132;SDS011;5106;50.926;7.080;2023-06-22T05:28:57;8.77;;;7.50;;
10132;SDS011;5106;50.926;7.080;2023-06-22T05:31:23;8.07;;;7.28;;
10132;SDS011;5106;50.926;7.080;2023-06-22T05:33:52;7.13;;;6.43;;
10132;SDS011;5106;50.926;7.080;2023-06-22T05:36:18;7.97;;;7.18;;
10132;SDS011;5106;50.926;7.080;2023-06-22T05:38:45;8.55;;;7.75;;
10132;SDS011;5106;50.926;7.080;2023-06-22T05:41:11;8.05;;;7.25;;
10132;SDS011;5106;50.926;7.080;2023-06-22T05:43:36;9.35;;;7.70;;
10132;SDS011;5106;50.926;7.080;2023-06-22T05:46:03;16.88;;;8.02;;
10132;SDS011;5106;50.926;7.080;2023-06-22T05:48:29;43.35;;;10.05;;
10132;SDS011;5106;50.926;7.080;2023-06-22T05:50:55;14.95;;;8.30;;
10132;SDS011;5106;50.926;7.080;2023-06-22T05:53:21;8.27;;;7.40;;
10132;SDS011;5106;50.926;7.080;2023-06-22T05:55:46;18.77;;;8.05;;
10132;SDS011;5106;50.926;7.080;2023-06-22T05:58:12;8.27;;;7.40;;
10132;SDS011;5106;50.926;7.080;2023-06-22T06:00:38;7.78;;;7.07;;
10132;SDS011;5106;50.926;7.080;2023-06-22T06:03:04;23.50;;;8.88;;
10132;SDS011;5106;50.926;7.080;2023-06-22T06:05:31;13.02;;;7.65;;
10132;SDS011;5106;50.926;7.080;2023-06-22T06:07:57;7.43;;;6.72;;
10132;SDS011;5106;50.926;7.080;2023-06-22T06:10:24;8.90;;;7.07;;
10132;SDS011;5106;50.926;7.080;2023-06-22T06:12:50;10.00;;;8.07;;
10132;SDS011;5106;50.926;7.080;2023-06-22T06:15:16;8.52;;;7.70;;
10132;SDS011;5106;50.926;7.080;2023-06-22T06:17:48;9.38;;;8.02;;
10132;SDS011;5106;50.926;7.080;2023-06-22T06:20:15;10.05;;;8.35;;
10132;SDS011;5106;50.926;7.080;2023-06-22T06:22:42;8.02;;;7.32;;
10132;SDS011;5106;50.926;7.080;2023-06-22T06:25:08;8.77;;;7.97;;
10132;SDS011;5106;50.926;7.080;2023-06-22T06:27:34;8.15;;;7.45;;
10132;SDS011;5106;50.926;7.080;2023-06-22T06:30:00;8.30;;;7.60;;
10132;SDS011;5106;50.926;7.080;2023-06-22T06:32:25;8.20;;;7.40;;
10132;SDS011;5106;50.926;7.080;2023-06-22T06:34:51;9.13;;;8.15;;
10132;SDS011;5106;50.926;7.080;2023-06-22T06:37:16;8.98;;;8.07;;
10132;SDS011;5106;50.926;7.080;2023-06-22T06:39:43;8.13;;;7.32;;
10132;SDS011;5106;50.926;7.080;2023-06-22T06:42:09;8.07;;;7.30;;
10132;SDS011;5106;50.926;7.080;2023-06-22T06:44:36;8.00;;;7.30;;
10132;SDS011;5106;50.926;7.080;2023-06-22T06:47:02;7.72;;;7.00;;
10132;SDS011;5106;50.926;7.080;2023-06-22T06:49:29;7.78;;;7.07;;
10132;SDS011;5106;50.926;7.080;2023-06-22T06:51:55;7.75;;;6.93;;
10132;SDS011;5106;50.926;7.080;2023-06-22T06:54:21;7.32;;;6.53;;
10132;SDS011;5106;50.926;7.080;2023-06-22T06:56:46;7.15;;;6.55;;
10132;SDS011;5106;50.926;7.080;2023-06-22T06:59:13;7.97;;;7.28;;
10132;SDS011;5106;50.926;7.080;2023-06-22T07:01:40;7.72;;;7.03;;
10132;SDS011;5106;50.926;7.080;2023-06-22T07:04:06;8.52;;;7.72;;
10132;SDS011;5106;50.926;7.080;2023-06-22T07:06:32;8.00;;;7.22;;
10132;SDS011;5106;50.926;7.080;2023-06-22T07:08:58;8.88;;;7.97;;
10132;SDS011;5106;50.926;7.080;2023-06-22T07:11:24;8.88;;;7.97;;
10132;SDS011;5106;50.926;7.080;2023-06-22T07:13:50;8.07;;;7.28;;
10132;SDS011;5106;50.926;7.080;2023-06-22T07:16:16;7.43;;;6.72;;
10132;SDS011;5106;50.926;7.080;2023-06-22T07:18:41;7.90;;;7.10;;
10132;SDS011;5106;50.926;7.080;2023-06-22T07:21:07;6.80;;;6.20;;
10132;SDS011;5106;50.926;7.080;2023-06-22T07:23:32;7.47;;;6.78;;
10132;SDS011;5106;50.926;7.080;2023-06-22T07:25:58;7.22;;;6.53;;
10132;SDS011;5106;50.926;7.080;2023-06-22T07:28:27;6.95;;;6.35;;
10132;SDS011;5106;50.926;7.080;2023-06-22T07:30:52;7.63;;;6.72;;
10132;SDS011;5106;50.926;7.080;2023-06-22T07:33:18;8.15;;;7.32;;
10132;SDS011;5106;50.926;7.080;2023-06-22T07:35:44;9.52;;;7.88;;
10132;SDS011;5106;50.926;7.080;2023-06-22T07:38:12;7.90;;;7.20;;
10132;SDS011;5106;50.926;7.080;2023-06-22T07:40:38;8.45;;;7.65;;
10132;SDS011;5106;50.926;7.080;2023-06-22T07:43:03;7.40;;;6.72;;
10132;SDS011;5106;50.926;7.080;2023-06-22T07:45:29;7.70;;;6.95;;
10132;SDS011;5106;50.926;7.080;2023-06-22T07:47:55;7.18;;;6.57;;
10132;SDS011;5106;50.926;7.080;2023-06-22T07:50:20;7.22;;;6.53;;
10132;SDS011;5106;50.926;7.080;2023-06-22T07:52:46;7.53;;;6.82;;
10132;SDS011;5106;50.926;7.080;2023-06-22T07:55:14;8.60;;;7.80;;
10132;SDS011;5106;50.926;7.080;2023-06-22T07:57:39;6.90;;;6.30;;
10132;SDS011;5106;50.926;7.080;2023-06-22T08:00:07;8.07;;;6.53;;
10132;SDS011;5106;50.926;7.080;2023-06-22T08:02:38;7.55;;;6.85;;
10132;SDS011;5106;50.926;7.080;2023-06-22T08:05:05;7.72;;;7.03;;
10132;SDS011;5106;50.926;7.080;2023-06-22T08:07:33;7.75;;;6.90;;
10132;SDS011;5106;50.926;7.080;2023-06-22T08:10:01;7.95;;;6.88;;
10132;SDS011;5106;50.926;7.080;2023-06-22T08:12:27;7.50;;;6.80;;
10132;SDS011;5106;50.926;7.080;2023-06-22T08:14:53;7.72;;;6.20;;
10132;SDS011;5106;50.926;7.080;2023-06-22T08:17:18;7.00;;;6.28;;
10132;SDS011;5106;50.926;7.080;2023-06-22T08:19:44;7.40;;;6.65;;
10132;SDS011;5106;50.926;7.080;2023-06-22T08:22:09;7.10;;;6.40;;
10132;SDS011;5106;50.926;7.080;2023-06-22T08:24:35;6.07;;;5.45;;
10132;SDS011;5106;50.926;7.080;2023-06-22T08:27:00;7.55;;;6.03;;
10132;SDS011;5106;50.926;7.080;2023-06-22T08:29:26;6.55;;;5.80;;
10132;SDS011;5106;50.926;7.080;2023-06-22T08:31:51;6.63;;;6.03;;
10132;SDS011;5106;50.926;7.080;2023-06-22T08:34:17;6.30;;;5.70;;
10132;SDS011;5106;50.926;7.080;2023-06-22T08:36:46;5.95;;;5.45;;
10132;SDS011;5106;50.926;7.080;2023-06-22T08:39:16;6.80;;;6.18;;
10132;SDS011;5106;50.926;7.080;2023-06-22T08:41:42;7.10;;;6.38;;
10132;SDS011;5106;50.926;7.080;2023-06-22T08:44:08;7.00;;;6.40;;
10132;SDS011;5106;50.926;7.080;2023-06-22T08:46:33;6.72;;;6.05;;
10132;SDS011;5106;50.926;7.080;2023-06-22T08:52:40;7.05;;;6.45;;
10132;SDS011;5106;50.926;7.080;2023-06-22T08:55:06;6.68;;;6.07;;
10132;SDS011;5106;50.926;7.080;2023-06-22T08:57:33;7.28;;;6.53;;
10132;SDS011;5106;50.926;7.080;2023-06-22T08:59:59;7.57;;;6.40;;
10132;SDS011;5106;50.926;7.080;2023-06-22T09:02:28;9.07;;;6.57;;
10132;SDS011;5106;50.926;7.080;2023-06-22T09:04:56;12.95;;;7.32;;
10132;SDS011;5106;50.926;7.080;2023-06-22T09:07:23;7.07;;;6.38;;
10132;SDS011;5106;50.926;7.080;2023-06-22T09:09:49;7.28;;;6.10;;
10132;SDS011;5106;50.926;7.080;2023-06-22T09:12:16;7.38;;;6.60;;
10132;SDS011;5106;50.926;7.080;2023-06-22T09:14:44;6.38;;;5.78;;
10132;SDS011;5106;50.926;7.080;2023-06-22T09:17:10;6.68;;;6.07;;
10132;SDS011;5106;50.926;7.080;2023-06-22T09:19:37;6.85;;;6.22;;
10132;SDS011;5106;50.926;7.080;2023-06-22T09:22:02;6.70;;;6.10;;
10132;SDS011;5106;50.926;7.080;2023-06-22T09:24:30;6.78;;;6.10;;
10132;SDS011;5106;50.926;7.080;2023-06-22T09:26:56;6.95;;;6.35;;
10132;SDS011;5106;50.926;7.080;2023-06-22T09:29:22;6.82;;;6.18;;
10132;SDS011;5106;50.926;7.080;2023-06-22T09:31:47;6.82;;;6.13;;
10132;SDS011;5106;50.926;7.080;2023-06-22T09:34:13;7.18;;;6.47;;
10132;SDS011;5106;50.926;7.080;2023-06-22T09:36:38;7.18;;;6.55;;
10132;SDS011;5106;50.926;7.080;2023-06-22T09:39:06;6.88;;;6.28;;
10132;SDS011;5106;50.926;7.080;2023-06-22T09:41:32;7.30;;;6.70;;
10132;SDS011;5106;50.926;7.080;2023-06-22T09:43:57;7.55;;;6.72;;
10132;SDS011;5106;50.926;7.080;2023-06-22T09:46:23;6.70;;;6.07;;
10132;SDS011;5106;50.926;7.080;2023-06-22T09:48:52;8.60;;;6.65;;
10132;SDS011;5106;50.926;7.080;2023-06-22T09:51:18;7.88;;;6.60;;
10132;SDS011;5106;50.926;7.080;2023-06-22T09:53:46;7.82;;;6.20;;
10132;SDS011;5106;50.926;7.080;2023-06-22T09:56:12;6.80;;;6.18;;
10132;SDS011;5106;50.926;7.080;2023-06-22T09:58:41;8.02;;;6.80;;
10132;SDS011;5106;50.926;7.080;2023-06-22T10:01:08;6.97;;;6.28;;
10132;SDS011;5106;50.926;7.080;2023-06-22T10:03:35;7.28;;;6.68;;
10132;SDS011;5106;50.926;7.080;2023-06-22T10:06:00;6.28;;;5.68;;
10132;SDS011;5106;50.926;7.080;2023-06-22T10:08:26;6.97;;;6.28;;
10132;SDS011;5106;50.926;7.080;2023-06-22T10:10:52;6.70;;;6.20;;
10132;SDS011;5106;50.926;7.080;2023-06-22T10:13:20;6.30;;;5.70;;
10132;SDS011;5106;50.926;7.080;2023-06-22T10:15:46;8.25;;;6.35;;
10132;SDS011;5106;50.926;7.080;2023-06-22T10:18:16;8.45;;;6.60;;
10132;SDS011;5106;50.926;7.080;2023-06-22T10:20:42;8.98;;;6.90;;
10132;SDS011;5106;50.926;7.080;2023-06-22T10:23:09;11.70;;;6.85;;
10132;SDS011;5106;50.926;7.080;2023-06-22T10:25:35;10.25;;;6.93;;
10132;SDS011;5106;50.926;7.080;2023-06-22T10:28:00;8.73;;;6.50;;
10132;SDS011;5106;50.926;7.080;2023-06-22T10:30:26;7.72;;;7.03;;
10132;SDS011;5106;50.926;7.080;2023-06-22T10:32:53;7.65;;;6.88;;
10132;SDS011;5106;50.926;7.080;2023-06-22T10:35:19;7.40;;;6.70;;
10132;SDS011;5106;50.926;7.080;2023-06-22T10:37:45;7.57;;;6.97;;
10132;SDS011;5106;50.926;7.080;2023-06-22T10:40:14;7.07;;;6.53;;
10132;SDS011;5106;50.926;7.080;2023-06-22T10:42:41;7.45;;;6.75;;
10132;SDS011;5106;50.926;7.080;2023-06-22T10:45:07;9.20;;;7.40;;
10132;SDS011;5106;50.926;7.080;2023-06-22T10:47:33;9.35;;;7.18;;
10132;SDS011;5106;50.926;7.080;2023-06-22T10:49:59;9.45;;;8.02;;
10132;SDS011;5106;50.926;7.080;2023-06-22T10:52:25;9.20;;;8.10;;
10132;SDS011;5106;50.926;7.080;2023-06-22T10:54:51;8.65;;;7.85;;
10132;SDS011;5106;50.926;7.080;2023-06-22T10:57:17;9.88;;;7.93;;
10132;SDS011;5106;50.926;7.080;2023-06-22T10:59:43;9.43;;;8.60;;
10132;SDS011;5106;50.926;7.080;2023-06-22T11:02:09;9.48;;;8.30;;
10132;SDS011;5106;50.926;7.080;2023-06-22T11:04:35;9.65;;;8.85;;
10132;SDS011;5106;50.926;7.080;2023-06-22T11:07:00;10.07;;;9.02;;
10132;SDS011;5106;50.926;7.080;2023-06-22T11:09:26;10.50;;;9.50;;
10132;SDS011;5106;50.926;7.080;2023-06-22T11:11:52;11.38;;;10.13;;
10132;SDS011;5106;50.926;7.080;2023-06-22T11:14:21;11.05;;;9.88;;
10132;SDS011;5106;50.926;7.080;2023-06-22T11:16:47;13.00;;;10.50;;
10132;SDS011;5106;50.926;7.080;2023-06-22T14:35:03;16.35;;;6.65;;
10132;SDS011;5106;50.926;7.080;2023-06-22T14:37:29;10.70;;;7.18;;
10132;SDS011;5106;50.926;7.080;2023-06-22T14:39:54;9.85;;;7.57;;
10132;SDS011;5106;50.926;7.080;2023-06-22T14:42:20;7.65;;;6.78;;
10132;SDS011;5106;50.926;7.080;2023-06-22T14:44:47;11.00;;;6.78;;
10132;SDS011;5106;50.926;7.080;2023-06-22T14:47:13;7.22;;;6.63;;
10132;SDS011;5106;50.926;7.080;2023-06-22T14:49:39;7.43;;;6.72;;
10132;SDS011;5106;50.926;7.080;2023-06-22T14:52:06;7.45;;;6.75;;
10132;SDS011;5106;50.926;7.080;2023-06-22T14:54:31;11.68;;;7.47;;
10132;SDS011;5106;50.926;7.080;2023-06-22T14:56:57;11.57;;;8.15;;
10132;SDS011;5106;50.926;7.080;2023-06-22T14:59:23;11.15;;;8.35;;
10132;SDS011;5106;50.926;7.080;2023-06-22T15:01:48;12.75;;;8.85;;
10132;SDS011;5106;50.926;7.080;2023-06-22T15:04:14;12.65;;;9.30;;
10132;SDS011;5106;50.926;7.080;2023-06-22T15:06:40;12.95;;;9.27;;
10132;SDS011;5106;50.926;7.080;2023-06-22T15:09:05;13.88;;;8.88;;
10132;SDS011;5106;50.926;7.080;2023-06-22T15:11:31;14.30;;;9.48;;
10132;SDS011;5106;50.926;7.080;2023-06-22T15:13:58;11.13;;;8.15;;
10132;SDS011;5106;50.926;7.080;2023-06-22T15:16:25;12.32;;;9.13;;
10132;SDS011;5106;50.926;7.080;2023-06-22T15:18:51;9.63;;;8.63;;
10132;SDS011;5106;50.926;7.080;2023-06-22T15:21:17;10.88;;;9.10;;
10132;SDS011;5106;50.926;7.080;2023-06-22T15:23:43;15.32;;;10.10;;
10132;SDS011;5106;50.926;7.080;2023-06-22T15:26:08;15.60;;;10.10;;
10132;SDS011;5106;50.926;7.080;2023-06-22T15:28:34;14.80;;;10.43;;
10132;SDS011;5106;50.926;7.080;2023-06-22T15:31:02;10.02;;;9.00;;
10132;SDS011;5106;50.926;7.080;2023-06-22T15:33:27;11.00;;;8.50;;
10132;SDS011;5106;50.926;7.080;2023-06-22T15:35:53;9.45;;;8.50;;
10132;SDS011;5106;50.926;7.080;2023-06-22T15:38:20;11.60;;;8.35;;
10132;SDS011;5106;50.926;7.080;2023-06-22T15:40:46;12.10;;;8.18;;
10132;SDS011;5106;50.926;7.080;2023-06-22T15:43:11;11.85;;;8.23;;
10132;SDS011;5106;50.926;7.080;2023-06-22T15:45:40;12.10;;;9.27;;
10132;SDS011;5106;50.926;7.080;2023-06-22T15:48:05;15.63;;;9.02;;
10132;SDS011;5106;50.926;7.080;2023-06-22T15:50:31;9.90;;;8.90;;
10132;SDS011;5106;50.926;7.080;2023-06-22T15:52:57;13.73;;;8.77;;
10132;SDS011;5106;50.926;7.080;2023-06-22T15:55:22;10.82;;;9.50;;
10132;SDS011;5106;50.926;7.080;2023-06-22T15:57:48;10.68;;;9.32;;
10132;SDS011;5106;50.926;7.080;2023-06-22T16:00:14;10.45;;;9.13;;
10132;SDS011;5106;50.926;7.080;2023-06-22T16:02:41;12.50;;;8.93;;
10132;SDS011;5106;50.926;7.080;2023-06-22T16:05:08;10.38;;;9.32;;
10132;SDS011;5106;50.926;7.080;2023-06-22T16:07:34;9.82;;;8.93;;
10132;SDS011;5106;50.926;7.080;2023-06-22T16:10:00;9.32;;;8.38;;
10132;SDS011;5106;50.926;7.080;2023-06-22T16:12:26;11.73;;;9.05;;
10132;SDS011;5106;50.926;7.080;2023-06-22T16:14:54;9.73;;;8.80;;
10132;SDS011;5106;50.926;7.080;2023-06-22T16:17:19;9.95;;;9.02;;
10132;SDS011;5106;50.926;7.080;2023-06-22T16:19:46;9.98;;;8.98;;
10132;SDS011;5106;50.926;7.080;2023-06-22T16:22:11;10.13;;;9.13;;
10132;SDS011;5106;50.926;7.080;2023-06-22T16:24:37;10.35;;;9.25;;
10132;SDS011;5106;50.926;7.080;2023-06-22T16:27:03;10.23;;;9.32;;
10132;SDS011;5106;50.926;7.080;2023-06-22T16:29:28;11.18;;;9.52;;
10132;SDS011;5106;50.926;7.080;2023-06-22T16:31:54;10.65;;;9.57;;
10132;SDS011;5106;50.926;7.080;2023-06-22T16:34:20;10.73;;;9.73;;
10132;SDS011;5106;50.926;7.080;2023-06-22T16:36:45;11.40;;;10.40;;
10132;SDS011;5106;50.926;7.080;2023-06-22T16:39:11;10.98;;;9.90;;
10132;SDS011;5106;50.926;7.080;2023-06-22T16:41:36;11.07;;;10.02;;
10132;SDS011;5106;50.926;7.080;2023-06-22T16:44:05;10.63;;;9.52;;
10132;SDS011;5106;50.926;7.080;2023-06-22T16:46:34;11.48;;;10.38;;
10132;SDS011;5106;50.926;7.080;2023-06-22T16:49:00;10.93;;;9.93;;
10132;SDS011;5106;50.926;7.080;2023-06-22T16:51:29;9.98;;;9.07;;
10132;SDS011;5106;50.926;7.080;2023-06-22T16:53:54;11.32;;;9.75;;
10132;SDS011;5106;50.926;7.080;2023-06-22T16:56:26;9.80;;;7.90;;
10132;SDS011;5106;50.926;7.080;2023-06-22T16:58:54;9.52;;;7.35;;
10132;SDS011;5106;50.926;7.080;2023-06-22T17:01:22;8.55;;;7.68;;
10132;SDS011;5106;50.926;7.080;2023-06-22T17:03:59;8.50;;;7.68;;
10132;SDS011;5106;50.926;7.080;2023-06-22T17:06:34;8.77;;;7.63;;
10132;SDS011;5106;50.926;7.080;2023-06-22T17:09:02;8.70;;;7.65;;
10132;SDS011;5106;50.926;7.080;2023-06-22T17:11:29;7.82;;;7.03;;
10132;SDS011;5106;50.926;7.080;2023-06-22T17:13:56;9.65;;;6.95;;
10132;SDS011;5106;50.926;7.080;2023-06-22T17:16:23;8.93;;;7.03;;
10132;SDS011;5106;50.926;7.080;2023-06-22T17:18:50;9.38;;;7.28;;
10132;SDS011;5106;50.926;7.080;2023-06-22T17:21:21;8.43;;;6.93;;
10132;SDS011;5106;50.926;7.080;2023-06-22T17:23:48;7.43;;;6.63;;
10132;SDS011;5106;50.926;7.080;2023-06-22T17:26:15;9.77;;;7.07;;
10132;SDS011;5106;50.926;7.080;2023-06-22T17:28:51;7.95;;;6.72;;
10132;SDS011;5106;50.926;7.080;2023-06-22T17:31:25;10.70;;;7.35;;
10132;SDS011;5106;50.926;7.080;2023-06-22T17:34:01;8.52;;;6.90;;
10132;SDS011;5106;50.926;7.080;2023-06-22T17:39:10;7.20;;;6.47;;
10132;SDS011;5106;50.926;7.080;2023-06-22T17:41:37;7.63;;;6.38;;
10132;SDS011;5106;50.926;7.080;2023-06-22T17:44:04;6.90;;;6.20;;
10132;SDS011;5106;50.926;7.080;2023-06-22T17:46:34;7.07;;;6.38;;
10132;SDS011;5106;50.926;7.080;2023-06-22T17:49:00;8.63;;;6.47;;
10132;SDS011;5106;50.926;7.080;2023-06-22T17:51:26;8.50;;;6.63;;
10132;SDS011;5106;50.926;7.080;2023-06-22T17:53:51;9.25;;;7.10;;
10132;SDS011;5106;50.926;7.080;2023-06-22T17:56:17;10.30;;;6.63;;
10132;SDS011;5106;50.926;7.080;2023-06-22T17:58:49;10.20;;;7.18;;
10132;SDS011;5106;50.926;7.080;2023-06-22T18:01:16;7.90;;;7.10;;
10132;SDS011;5106;50.926;7.080;2023-06-22T18:03:52;9.88;;;7.28;;
10132;SDS011;5106;50.926;7.080;2023-06-22T18:06:18;7.13;;;6.53;;
10132;SDS011;5106;50.926;7.080;2023-06-22T18:08:44;7.57;;;6.82;;
10132;SDS011;5106;50.926;7.080;2023-06-22T18:11:11;6.95;;;6.28;;
10132;SDS011;5106;50.926;7.080;2023-06-22T18:13:38;6.90;;;6.20;;
10132;SDS011;5106;50.926;7.080;2023-06-22T18:16:08;10.02;;;5.35;;
10132;SDS011;5106;50.926;7.080;2023-06-22T18:18:35;7.45;;;5.15;;
10132;SDS011;5106;50.926;7.080;2023-06-22T18:21:02;7.25;;;4.95;;
10132;SDS011;5106;50.926;7.080;2023-06-22T18:23:29;5.88;;;5.07;;
10132;SDS011;5106;50.926;7.080;2023-06-22T18:26:01;6.85;;;5.38;;